Search for airport 
image banner adimage banner ad
image banner ad

FQIA - Inhaca

Located in , Mozambique

ICAO - FQIA, IATA - IHC

Data provided by Airmate  

General information

Coordinates: S25°59'49" E32°55'45"
Elevation is 8 feet MSL.
 
View others Airports in Maputo Province

Operational data

Open for public use
Current time UTC:
Current local time:
Weather at : FQMA - Maputo / International ( 37 km )
METAR: FQMA 280600Z 20011KT 9999 BKN020 24/22 Q1012 NOSIG
TAF: TAF FQMA 280400Z 2806/2912 21007KT 9999 SCT020 TX29/2813Z TN22/2904Z BECMG 2808/2810 15010G20KT PROB30 TEMPO 2808/2814 5000 -RADZ BKN015 BECMG 2820/2822 21010KT
View NOTAMs / SUP AIP / TFR affecting this airport [VIEW]
Communications frequencies: [VIEW]

Runways:

RWY identifierQFULength (ft)Width (ft)SurfaceLDA (ft)
10246198
28246198
18295398
36295398

Airport contact information

Address: Mozambique

Satellite view of FQIA